Terminal Aerodrome Forecast
Issued by NWS

Home | Current Version | Previous Version | Text Only | Print | Product List | Glossary On
Versions: 1 2 3 4 5 6 7 8 9 10 11 12 13 14 15 16 17 18 19 20
000
FTUS44 KBMX 010123 AAA
TAFMGM
TAF AMD
KMGM 010123Z 0101/0124 19004KT P6SM -TSRA FEW045 SCT060CB OVC150
     FM010200 20003KT P6SM SCT250
     FM011100 21002KT 5SM BR OVC019
     FM011300 27005KT P6SM SCT250
     FM011800 25007KT P6SM VCTS SCT050CB BKN250=

USA.gov is the U.S. government's official web portal to all federal, state and local government web resources and services.